createdAt,value
2018-07-25T16:13:37.351Z,28.80
2018-07-25T16:17:37.291Z,31.60
2018-07-25T16:20:05.883Z,31.10
2018-07-25T16:35:30.270Z,20.30
2018-07-25T16:38:00.071Z,21.50
2018-07-25T16:40:29.456Z,22.10
2018-07-25T16:45:28.925Z,22.00
2018-07-25T16:47:59.387Z,21.50
2018-07-25T16:50:29.804Z,21.60
2018-07-25T16:53:00.328Z,21.70
2018-07-25T16:55:30.834Z,21.70
2018-07-25T16:58:00.063Z,21.70
2018-07-25T17:00:29.140Z,22.50
2018-07-25T17:02:58.404Z,22.50
2018-07-25T17:05:28.106Z,22.90
2018-07-25T17:10:28.270Z,23.30
2018-07-25T17:12:58.032Z,23.00
2018-07-25T17:15:27.329Z,23.40
2018-07-25T17:17:57.803Z,23.00
2018-07-25T17:20:26.180Z,23.50
2018-07-25T17:22:55.337Z,24.00
2018-07-25T17:25:24.019Z,24.50
2018-07-25T17:27:52.205Z,24.70
2018-07-25T17:30:21.702Z,25.20
2018-07-25T17:32:49.902Z,25.00
2018-07-25T17:35:18.163Z,25.90
2018-07-25T17:37:46.308Z,25.60
2018-07-25T17:40:14.521Z,25.60
2018-07-25T17:42:43.231Z,25.80
2018-07-25T17:45:12.932Z,25.80
2018-07-25T17:47:44.227Z,26.00
2018-07-25T17:50:12.752Z,26.20
2018-07-25T17:52:41.793Z,25.90
2018-07-25T17:55:12.020Z,25.90
2018-07-25T17:57:40.975Z,26.10
2018-07-25T18:00:10.752Z,26.10
2018-07-25T18:02:39.098Z,26.10
2018-07-25T18:05:08.860Z,26.20
2018-07-25T18:07:41.650Z,26.30
2018-07-25T18:10:10.644Z,26.20
2018-07-25T18:12:39.235Z,26.70
2018-07-25T18:15:10.641Z,26.40
2018-07-25T18:17:39.276Z,27.10
2018-07-25T18:20:08.454Z,26.90
2018-07-25T18:25:07.198Z,28.30
2018-07-25T18:27:35.754Z,28.70
2018-07-25T18:32:34.041Z,29.80
2018-07-25T18:37:31.433Z,30.20
2018-07-25T18:40:01.284Z,30.70
2018-07-25T18:42:30.050Z,30.70
2018-07-25T18:44:58.735Z,31.00
2018-07-25T18:49:55.782Z,32.30
2018-07-25T18:52:25.694Z,32.40
2018-07-25T18:54:55.514Z,32.40
2018-07-25T18:57:26.500Z,32.60
2018-07-25T19:02:24.089Z,33.90
2018-07-25T19:07:22.163Z,34.40
2018-07-25T19:09:51.034Z,35.00
2018-07-25T19:12:20.514Z,35.50
2018-07-25T19:14:55.932Z,35.90
2018-07-25T19:17:24.704Z,36.30
2018-07-25T19:19:53.248Z,36.80
2018-07-25T19:22:22.181Z,37.10
2018-07-25T19:24:52.489Z,37.80
2018-07-25T19:29:51.430Z,39.00
2018-07-25T19:32:20.487Z,39.30
2018-07-25T19:34:49.224Z,39.30
2018-07-25T19:39:46.604Z,39.50
2018-07-25T19:42:16.398Z,39.60
2018-07-25T19:44:46.315Z,39.60
2018-07-25T19:49:45.892Z,40.60
2018-07-25T19:52:14.842Z,40.60
2018-07-25T19:54:45.539Z,41.00
2018-07-25T19:57:16.630Z,41.40
2018-07-25T19:59:50.155Z,41.30
2018-07-25T20:02:19.052Z,41.50
2018-07-25T20:04:51.022Z,41.80
2018-07-25T20:07:20.143Z,42.00
2018-07-25T20:09:49.028Z,42.50
2018-07-25T20:12:18.074Z,42.70
2018-07-25T20:17:21.525Z,42.00
2018-07-25T20:19:50.363Z,42.20
2018-07-25T20:22:19.152Z,42.20
2018-07-25T20:24:47.898Z,42.30
2018-07-25T20:29:45.595Z,42.70
2018-07-25T20:32:14.493Z,43.00
2018-07-25T20:37:12.122Z,42.30
2018-07-25T20:39:40.896Z,43.80
2018-07-25T20:42:09.595Z,42.90
2018-07-25T20:44:38.487Z,43.00
2018-07-25T20:47:07.294Z,43.90
2018-07-25T20:49:36.439Z,43.30
2018-07-25T20:52:04.984Z,43.30
2018-07-25T20:54:33.690Z,43.90
2018-07-25T20:57:02.271Z,45.10
2018-07-25T20:59:31.007Z,46.30
2018-07-25T21:01:59.384Z,46.80
2018-07-25T21:04:29.722Z,48.30
2018-07-25T21:06:58.145Z,47.40
2018-07-25T21:09:26.416Z,48.30
2018-07-25T21:11:54.715Z,47.60
2018-07-25T21:14:22.981Z,47.60
2018-07-25T21:16:51.644Z,47.50
2018-07-25T21:19:20.355Z,47.10
2018-07-25T21:21:48.688Z,47.10
2018-07-25T21:24:17.111Z,47.80
2018-07-25T21:26:45.490Z,47.70
2018-07-25T21:29:13.807Z,49.10
2018-07-25T21:31:42.250Z,48.20
2018-07-25T21:34:11.653Z,47.80
2018-07-25T21:36:40.316Z,49.20
2018-07-25T21:39:12.211Z,48.00
2018-07-25T21:41:40.745Z,48.00
2018-07-25T21:44:09.316Z,48.90
2018-07-25T21:46:37.564Z,49.00
2018-07-25T21:51:35.088Z,48.40
2018-07-25T21:54:03.364Z,48.30
2018-07-25T21:56:32.041Z,48.10
2018-07-25T21:59:01.271Z,49.10
2018-07-25T22:01:29.904Z,49.10
2018-07-25T22:03:58.647Z,49.20
2018-07-25T22:06:27.355Z,48.40
2018-07-25T22:08:56.220Z,49.20
2018-07-25T22:11:25.038Z,49.10
2018-07-25T22:13:56.771Z,49.30
2018-07-25T22:16:26.704Z,49.00
2018-07-25T22:18:55.559Z,49.60
2018-07-25T22:21:24.192Z,49.40
2018-07-25T22:23:52.958Z,49.00
2018-07-25T22:26:21.590Z,49.00
2018-07-25T22:28:50.338Z,49.00
2018-07-25T22:31:18.996Z,48.80
2018-07-25T22:33:47.553Z,48.80
2018-07-25T22:36:16.213Z,49.00
2018-07-25T22:38:44.723Z,48.40
2018-07-25T22:41:13.160Z,48.80
2018-07-25T22:43:41.711Z,48.90
2018-07-25T22:46:10.330Z,49.10
2018-07-25T22:48:38.922Z,48.70
2018-07-25T22:51:07.568Z,48.70
2018-07-25T22:53:36.118Z,49.30
2018-07-25T22:56:05.533Z,48.80
2018-07-25T22:58:34.223Z,48.60
2018-07-25T23:01:02.889Z,48.60
2018-07-25T23:03:31.511Z,48.50
2018-07-25T23:06:00.120Z,48.40
2018-07-25T23:08:28.972Z,49.30
2018-07-25T23:10:58.242Z,48.50
2018-07-25T23:15:55.650Z,49.10
2018-07-25T23:18:24.277Z,48.50
2018-07-25T23:20:53.065Z,48.90
2018-07-25T23:23:21.738Z,49.10
2018-07-25T23:25:51.282Z,49.00
2018-07-25T23:28:20.186Z,49.50
2018-07-25T23:33:17.822Z,49.80
2018-07-25T23:35:46.293Z,49.40
2018-07-25T23:38:15.151Z,50.40
2018-07-25T23:43:13.805Z,49.60
2018-07-25T23:45:43.704Z,49.40
2018-07-25T23:48:13.443Z,49.40
2018-07-25T23:50:44.063Z,50.00
2018-07-25T23:53:16.131Z,49.90
2018-07-25T23:55:45.557Z,48.60
2018-07-25T23:58:14.963Z,49.30
